sensor_id;sensor_type;location;lat;lon;timestamp;temperature;humidity
17053;DHT22;8643;48.824;11.422;2023-02-20T00:02:24;7.30;99.90
17053;DHT22;8643;48.824;11.422;2023-02-20T00:04:52;7.30;99.90
17053;DHT22;8643;48.824;11.422;2023-02-20T00:07:21;7.20;99.90
17053;DHT22;8643;48.824;11.422;2023-02-20T00:09:50;7.30;99.90
17053;DHT22;8643;48.824;11.422;2023-02-20T00:12:19;7.30;99.90
17053;DHT22;8643;48.824;11.422;2023-02-20T00:17:16;7.30;99.90
17053;DHT22;8643;48.824;11.422;2023-02-20T00:19:45;7.10;99.90
17053;DHT22;8643;48.824;11.422;2023-02-20T00:24:42;7.30;99.90
17053;DHT22;8643;48.824;11.422;2023-02-20T00:27:12;7.30;99.90
17053;DHT22;8643;48.824;11.422;2023-02-20T00:29:43;7.30;99.90
17053;DHT22;8643;48.824;11.422;2023-02-20T00:32:14;7.30;99.90
17053;DHT22;8643;48.824;11.422;2023-02-20T00:39:41;7.30;99.90
17053;DHT22;8643;48.824;11.422;2023-02-20T00:42:09;7.30;99.90
17053;DHT22;8643;48.824;11.422;2023-02-20T00:44:39;7.10;99.90
17053;DHT22;8643;48.824;11.422;2023-02-20T00:47:07;7.10;99.90
17053;DHT22;8643;48.824;11.422;2023-02-20T00:49:36;6.90;99.90
17053;DHT22;8643;48.824;11.422;2023-02-20T00:52:22;6.00;99.90
17053;DHT22;8643;48.824;11.422;2023-02-20T00:54:51;6.80;99.90
17053;DHT22;8643;48.824;11.422;2023-02-20T00:57:20;6.80;99.90
17053;DHT22;8643;48.824;11.422;2023-02-20T00:59:50;6.70;99.90
17053;DHT22;8643;48.824;11.422;2023-02-20T01:02:19;6.70;99.90
17053;DHT22;8643;48.824;11.422;2023-02-20T01:04:47;3.60;99.90
17053;DHT22;8643;48.824;11.422;2023-02-20T01:07:16;6.80;99.90
17053;DHT22;8643;48.824;11.422;2023-02-20T01:09:45;6.70;99.90
17053;DHT22;8643;48.824;11.422;2023-02-20T01:14:45;6.80;99.90
17053;DHT22;8643;48.824;11.422;2023-02-20T01:17:15;6.80;99.90
17053;DHT22;8643;48.824;11.422;2023-02-20T01:19:43;6.90;99.90
17053;DHT22;8643;48.824;11.422;2023-02-20T01:22:12;6.80;99.90
17053;DHT22;8643;48.824;11.422;2023-02-20T01:24:41;7.50;99.90
17053;DHT22;8643;48.824;11.422;2023-02-20T01:27:09;6.90;99.90
17053;DHT22;8643;48.824;11.422;2023-02-20T01:32:08;6.90;99.90
17053;DHT22;8643;48.824;11.422;2023-02-20T01:34:40;6.50;99.90
17053;DHT22;8643;48.824;11.422;2023-02-20T01:37:11;6.90;99.90
17053;DHT22;8643;48.824;11.422;2023-02-20T01:39:41;6.90;99.90
17053;DHT22;8643;48.824;11.422;2023-02-20T01:42:13;6.90;99.90
17053;DHT22;8643;48.824;11.422;2023-02-20T01:44:46;7.00;99.90
17053;DHT22;8643;48.824;11.422;2023-02-20T01:47:16;6.90;99.90
17053;DHT22;8643;48.824;11.422;2023-02-20T01:49:49;6.90;99.90
17053;DHT22;8643;48.824;11.422;2023-02-20T01:52:24;6.90;99.90
17053;DHT22;8643;48.824;11.422;2023-02-20T01:54:57;6.90;99.90
17053;DHT22;8643;48.824;11.422;2023-02-20T01:57:31;6.90;99.90
17053;DHT22;8643;48.824;11.422;2023-02-20T02:00:06;6.90;99.90
17053;DHT22;8643;48.824;11.422;2023-02-20T02:02:43;6.90;99.90
17053;DHT22;8643;48.824;11.422;2023-02-20T02:05:18;6.90;99.90
17053;DHT22;8643;48.824;11.422;2023-02-20T02:07:51;7.50;99.90
17053;DHT22;8643;48.824;11.422;2023-02-20T02:10:24;6.90;99.90
17053;DHT22;8643;48.824;11.422;2023-02-20T02:12:56;7.00;99.90
17053;DHT22;8643;48.824;11.422;2023-02-20T02:18:28;6.90;99.90
17053;DHT22;8643;48.824;11.422;2023-02-20T02:21:35;6.90;99.90
17053;DHT22;8643;48.824;11.422;2023-02-20T02:31:26;6.90;99.90
17053;DHT22;8643;48.824;11.422;2023-02-20T02:37:34;6.90;99.90
17053;DHT22;8643;48.824;11.422;2023-02-20T02:40:19;6.90;99.90
17053;DHT22;8643;48.824;11.422;2023-02-20T02:43:00;7.60;99.90
17053;DHT22;8643;48.824;11.422;2023-02-20T02:45:39;6.90;99.90
17053;DHT22;8643;48.824;11.422;2023-02-20T02:48:24;6.90;99.90
17053;DHT22;8643;48.824;11.422;2023-02-20T02:51:00;6.80;99.90
17053;DHT22;8643;48.824;11.422;2023-02-20T02:53:36;6.90;99.90
17053;DHT22;8643;48.824;11.422;2023-02-20T02:56:05;6.80;99.90
17053;DHT22;8643;48.824;11.422;2023-02-20T02:58:59;6.90;99.90
17053;DHT22;8643;48.824;11.422;2023-02-20T03:01:30;6.80;99.90
17053;DHT22;8643;48.824;11.422;2023-02-20T03:04:05;6.90;99.90
17053;DHT22;8643;48.824;11.422;2023-02-20T03:06:41;6.70;99.90
17053;DHT22;8643;48.824;11.422;2023-02-20T03:09:16;6.70;99.90
17053;DHT22;8643;48.824;11.422;2023-02-20T03:11:52;6.60;99.90
17053;DHT22;8643;48.824;11.422;2023-02-20T03:14:30;6.60;99.90
17053;DHT22;8643;48.824;11.422;2023-02-20T03:17:27;6.60;99.90
17053;DHT22;8643;48.824;11.422;2023-02-20T03:20:00;6.60;99.90
17053;DHT22;8643;48.824;11.422;2023-02-20T03:22:34;6.50;99.90
17053;DHT22;8643;48.824;11.422;2023-02-20T03:25:15;6.50;99.90
17053;DHT22;8643;48.824;11.422;2023-02-20T03:27:52;6.60;99.90
17053;DHT22;8643;48.824;11.422;2023-02-20T03:30:30;6.60;99.90
17053;DHT22;8643;48.824;11.422;2023-02-20T03:33:09;6.60;99.90
17053;DHT22;8643;48.824;11.422;2023-02-20T03:36:00;6.60;99.90
17053;DHT22;8643;48.824;11.422;2023-02-20T03:38:52;6.60;99.90
17053;DHT22;8643;48.824;11.422;2023-02-20T03:41:46;6.60;99.90
17053;DHT22;8643;48.824;11.422;2023-02-20T03:44:37;6.60;99.90
17053;DHT22;8643;48.824;11.422;2023-02-20T03:49:42;6.60;99.90
17053;DHT22;8643;48.824;11.422;2023-02-20T03:52:15;6.60;99.90
17053;DHT22;8643;48.824;11.422;2023-02-20T03:57:17;6.50;99.90
17053;DHT22;8643;48.824;11.422;2023-02-20T03:59:53;6.50;99.90
17053;DHT22;8643;48.824;11.422;2023-02-20T04:02:30;6.50;99.90
17053;DHT22;8643;48.824;11.422;2023-02-20T04:05:04;6.40;99.90
17053;DHT22;8643;48.824;11.422;2023-02-20T04:07:41;6.50;99.90
17053;DHT22;8643;48.824;11.422;2023-02-20T04:10:15;6.50;99.90
17053;DHT22;8643;48.824;11.422;2023-02-20T04:12:49;6.50;99.90
17053;DHT22;8643;48.824;11.422;2023-02-20T04:15:20;6.40;99.90
17053;DHT22;8643;48.824;11.422;2023-02-20T04:17:58;6.40;99.90
17053;DHT22;8643;48.824;11.422;2023-02-20T04:20:30;6.30;99.90
17053;DHT22;8643;48.824;11.422;2023-02-20T04:23:13;6.40;99.90
17053;DHT22;8643;48.824;11.422;2023-02-20T04:25:46;6.40;99.90
17053;DHT22;8643;48.824;11.422;2023-02-20T04:28:19;6.40;99.90
17053;DHT22;8643;48.824;11.422;2023-02-20T04:33:26;6.50;99.90
17053;DHT22;8643;48.824;11.422;2023-02-20T04:36:00;6.50;99.90
17053;DHT22;8643;48.824;11.422;2023-02-20T04:38:29;6.50;99.90
17053;DHT22;8643;48.824;11.422;2023-02-20T04:40:59;6.50;99.90
17053;DHT22;8643;48.824;11.422;2023-02-20T04:45:57;6.50;99.90
17053;DHT22;8643;48.824;11.422;2023-02-20T04:48:28;6.50;99.90
17053;DHT22;8643;48.824;11.422;2023-02-20T04:50:57;6.50;99.90
17053;DHT22;8643;48.824;11.422;2023-02-20T04:53:29;6.40;99.90
17053;DHT22;8643;48.824;11.422;2023-02-20T04:55:58;6.40;99.90
17053;DHT22;8643;48.824;11.422;2023-02-20T05:01:03;6.30;99.90
17053;DHT22;8643;48.824;11.422;2023-02-20T05:03:33;7.10;99.90
17053;DHT22;8643;48.824;11.422;2023-02-20T05:06:01;6.40;99.90
17053;DHT22;8643;48.824;11.422;2023-02-20T05:08:30;6.40;99.90
17053;DHT22;8643;48.824;11.422;2023-02-20T05:10:59;6.40;99.90
17053;DHT22;8643;48.824;11.422;2023-02-20T05:13:27;6.40;99.90
17053;DHT22;8643;48.824;11.422;2023-02-20T05:18:29;6.40;99.90
17053;DHT22;8643;48.824;11.422;2023-02-20T05:20:59;6.40;99.90
17053;DHT22;8643;48.824;11.422;2023-02-20T05:23:45;6.40;99.90
17053;DHT22;8643;48.824;11.422;2023-02-20T05:26:17;6.40;99.90
17053;DHT22;8643;48.824;11.422;2023-02-20T05:33:44;6.40;99.90
17053;DHT22;8643;48.824;11.422;2023-02-20T05:36:15;6.50;99.90
17053;DHT22;8643;48.824;11.422;2023-02-20T05:38:44;6.40;99.90
17053;DHT22;8643;48.824;11.422;2023-02-20T05:41:15;5.10;99.90
17053;DHT22;8643;48.824;11.422;2023-02-20T05:43:43;6.50;99.90
17053;DHT22;8643;48.824;11.422;2023-02-20T05:48:47;6.60;99.90
17053;DHT22;8643;48.824;11.422;2023-02-20T05:51:23;6.40;99.90
17053;DHT22;8643;48.824;11.422;2023-02-20T05:53:53;6.30;99.90
17053;DHT22;8643;48.824;11.422;2023-02-20T05:56:22;6.40;99.90
17053;DHT22;8643;48.824;11.422;2023-02-20T05:58:51;6.40;99.90
17053;DHT22;8643;48.824;11.422;2023-02-20T06:01:21;6.40;99.90
17053;DHT22;8643;48.824;11.422;2023-02-20T06:03:51;6.40;99.90
17053;DHT22;8643;48.824;11.422;2023-02-20T06:06:23;6.40;99.90
17053;DHT22;8643;48.824;11.422;2023-02-20T06:08:51;6.30;99.90
17053;DHT22;8643;48.824;11.422;2023-02-20T06:11:19;6.30;99.90
17053;DHT22;8643;48.824;11.422;2023-02-20T06:16:21;6.30;99.90
17053;DHT22;8643;48.824;11.422;2023-02-20T06:18:50;6.30;99.90
17053;DHT22;8643;48.824;11.422;2023-02-20T06:21:20;6.10;99.90
17053;DHT22;8643;48.824;11.422;2023-02-20T06:23:52;6.10;99.90
17053;DHT22;8643;48.824;11.422;2023-02-20T06:26:22;6.10;99.90
17053;DHT22;8643;48.824;11.422;2023-02-20T06:28:50;7.20;99.90
17053;DHT22;8643;48.824;11.422;2023-02-20T06:31:22;7.20;99.90
17053;DHT22;8643;48.824;11.422;2023-02-20T06:36:23;6.00;99.90
17053;DHT22;8643;48.824;11.422;2023-02-20T06:38:57;6.10;99.90
17053;DHT22;8643;48.824;11.422;2023-02-20T06:41:28;6.10;99.90
17053;DHT22;8643;48.824;11.422;2023-02-20T06:43:56;6.00;99.90
17053;DHT22;8643;48.824;11.422;2023-02-20T06:46:25;6.00;99.90
17053;DHT22;8643;48.824;11.422;2023-02-20T06:48:56;6.00;99.90
17053;DHT22;8643;48.824;11.422;2023-02-20T06:51:27;5.90;99.90
17053;DHT22;8643;48.824;11.422;2023-02-20T06:54:00;5.90;99.90
17053;DHT22;8643;48.824;11.422;2023-02-20T06:56:31;5.90;99.90
17053;DHT22;8643;48.824;11.422;2023-02-20T06:59:04;5.90;99.90
17053;DHT22;8643;48.824;11.422;2023-02-20T07:01:40;5.90;99.90
17053;DHT22;8643;48.824;11.422;2023-02-20T07:04:14;5.90;99.90
17053;DHT22;8643;48.824;11.422;2023-02-20T07:09:15;6.00;99.90
17053;DHT22;8643;48.824;11.422;2023-02-20T07:11:45;6.00;99.90
17053;DHT22;8643;48.824;11.422;2023-02-20T07:14:14;5.90;99.90
17053;DHT22;8643;48.824;11.422;2023-02-20T07:16:43;6.00;99.90
17053;DHT22;8643;48.824;11.422;2023-02-20T07:19:11;6.20;99.90
17053;DHT22;8643;48.824;11.422;2023-02-20T07:21:40;6.30;99.90
17053;DHT22;8643;48.824;11.422;2023-02-20T07:24:08;6.50;99.90
17053;DHT22;8643;48.824;11.422;2023-02-20T07:26:38;6.80;99.90
17053;DHT22;8643;48.824;11.422;2023-02-20T07:29:06;6.80;99.90
17053;DHT22;8643;48.824;11.422;2023-02-20T07:31:35;6.90;99.90
17053;DHT22;8643;48.824;11.422;2023-02-20T07:34:05;6.90;99.90
17053;DHT22;8643;48.824;11.422;2023-02-20T07:36:37;6.90;99.90
17053;DHT22;8643;48.824;11.422;2023-02-20T07:39:09;6.90;99.90
17053;DHT22;8643;48.824;11.422;2023-02-20T07:41:39;6.90;99.90
17053;DHT22;8643;48.824;11.422;2023-02-20T07:44:27;7.00;99.90
17053;DHT22;8643;48.824;11.422;2023-02-20T07:46:55;7.00;99.90
17053;DHT22;8643;48.824;11.422;2023-02-20T07:51:52;7.00;99.90
17053;DHT22;8643;48.824;11.422;2023-02-20T07:54:21;7.00;99.90
17053;DHT22;8643;48.824;11.422;2023-02-20T07:56:50;7.00;99.90
17053;DHT22;8643;48.824;11.422;2023-02-20T07:59:19;7.00;99.90
17053;DHT22;8643;48.824;11.422;2023-02-20T08:01:48;7.00;99.90
17053;DHT22;8643;48.824;11.422;2023-02-20T08:04:16;7.10;99.90
17053;DHT22;8643;48.824;11.422;2023-02-20T08:06:45;7.00;99.90
17053;DHT22;8643;48.824;11.422;2023-02-20T08:09:13;6.90;99.90
17053;DHT22;8643;48.824;11.422;2023-02-20T08:14:13;8.30;99.90
17053;DHT22;8643;48.824;11.422;2023-02-20T08:16:42;7.40;99.90
17053;DHT22;8643;48.824;11.422;2023-02-20T08:19:10;8.00;99.90
17053;DHT22;8643;48.824;11.422;2023-02-20T08:21:39;8.40;99.90
17053;DHT22;8643;48.824;11.422;2023-02-20T08:24:07;8.60;99.90
17053;DHT22;8643;48.824;11.422;2023-02-20T08:26:42;8.10;99.90
17053;DHT22;8643;48.824;11.422;2023-02-20T08:29:12;9.10;99.90
17053;DHT22;8643;48.824;11.422;2023-02-20T08:31:41;9.50;99.90
17053;DHT22;8643;48.824;11.422;2023-02-20T08:34:10;10.00;99.90
17053;DHT22;8643;48.824;11.422;2023-02-20T08:36:39;10.30;99.90
17053;DHT22;8643;48.824;11.422;2023-02-20T08:39:07;11.20;99.90
17053;DHT22;8643;48.824;11.422;2023-02-20T08:41:41;10.90;99.90
17053;DHT22;8643;48.824;11.422;2023-02-20T08:44:10;11.10;99.90
17053;DHT22;8643;48.824;11.422;2023-02-20T08:46:46;11.50;99.90
17053;DHT22;8643;48.824;11.422;2023-02-20T08:49:16;11.60;99.90
17053;DHT22;8643;48.824;11.422;2023-02-20T08:51:52;12.00;99.90
17053;DHT22;8643;48.824;11.422;2023-02-20T08:56:50;12.20;99.90
17053;DHT22;8643;48.824;11.422;2023-02-20T08:59:20;12.20;99.90
17053;DHT22;8643;48.824;11.422;2023-02-20T09:01:49;12.30;99.90
17053;DHT22;8643;48.824;11.422;2023-02-20T09:04:17;12.20;99.90
17053;DHT22;8643;48.824;11.422;2023-02-20T09:06:47;11.90;99.90
17053;DHT22;8643;48.824;11.422;2023-02-20T09:09:16;11.30;99.90
17053;DHT22;8643;48.824;11.422;2023-02-20T09:11:45;10.80;99.90
17053;DHT22;8643;48.824;11.422;2023-02-20T09:16:44;10.30;99.90
17053;DHT22;8643;48.824;11.422;2023-02-20T09:19:12;10.10;99.90
17053;DHT22;8643;48.824;11.422;2023-02-20T09:21:44;10.10;99.90
17053;DHT22;8643;48.824;11.422;2023-02-20T09:24:13;8.80;99.90
17053;DHT22;8643;48.824;11.422;2023-02-20T09:26:41;9.70;99.90
17053;DHT22;8643;48.824;11.422;2023-02-20T09:29:10;9.70;99.90
17053;DHT22;8643;48.824;11.422;2023-02-20T09:34:09;11.30;99.90
17053;DHT22;8643;48.824;11.422;2023-02-20T09:36:37;11.90;99.90
17053;DHT22;8643;48.824;11.422;2023-02-20T09:39:06;12.10;99.90
17053;DHT22;8643;48.824;11.422;2023-02-20T09:41:44;11.80;99.90
17053;DHT22;8643;48.824;11.422;2023-02-20T09:44:29;11.00;99.90
17053;DHT22;8643;48.824;11.422;2023-02-20T09:47:21;10.50;99.90
17053;DHT22;8643;48.824;11.422;2023-02-20T09:50:02;10.60;99.90
17053;DHT22;8643;48.824;11.422;2023-02-20T09:52:36;12.10;99.90
17053;DHT22;8643;48.824;11.422;2023-02-20T09:55:11;11.70;99.90
17053;DHT22;8643;48.824;11.422;2023-02-20T09:57:48;11.90;99.90
17053;DHT22;8643;48.824;11.422;2023-02-20T10:00:24;11.50;99.90
17053;DHT22;8643;48.824;11.422;2023-02-20T10:03:12;11.00;99.90
17053;DHT22;8643;48.824;11.422;2023-02-20T10:05:50;10.70;99.90
17053;DHT22;8643;48.824;11.422;2023-02-20T10:08:22;10.80;99.90
17053;DHT22;8643;48.824;11.422;2023-02-20T10:10:53;10.90;99.90
17053;DHT22;8643;48.824;11.422;2023-02-20T10:13:42;11.20;99.90
17053;DHT22;8643;48.824;11.422;2023-02-20T10:16:27;11.50;99.90
17053;DHT22;8643;48.824;11.422;2023-02-20T10:19:12;11.90;99.90
17053;DHT22;8643;48.824;11.422;2023-02-20T10:22:00;12.60;99.90
17053;DHT22;8643;48.824;11.422;2023-02-20T10:24:45;13.30;99.90
17053;DHT22;8643;48.824;11.422;2023-02-20T10:27:29;13.70;99.90
17053;DHT22;8643;48.824;11.422;2023-02-20T10:30:10;14.10;99.00
17053;DHT22;8643;48.824;11.422;2023-02-20T10:32:44;14.10;99.20
17053;DHT22;8643;48.824;11.422;2023-02-20T10:35:23;14.30;96.70
17053;DHT22;8643;48.824;11.422;2023-02-20T10:37:57;14.40;96.70
17053;DHT22;8643;48.824;11.422;2023-02-20T10:40:34;14.70;95.20
17053;DHT22;8643;48.824;11.422;2023-02-20T10:43:13;14.80;96.00
17053;DHT22;8643;48.824;11.422;2023-02-20T10:45:54;14.70;94.30
17053;DHT22;8643;48.824;11.422;2023-02-20T10:48:32;14.90;93.50
17053;DHT22;8643;48.824;11.422;2023-02-20T10:51:05;14.90;94.00
17053;DHT22;8643;48.824;11.422;2023-02-20T10:53:47;15.10;92.80
17053;DHT22;8643;48.824;11.422;2023-02-20T10:56:25;14.60;92.20
17053;DHT22;8643;48.824;11.422;2023-02-20T10:59:03;14.00;94.40
17053;DHT22;8643;48.824;11.422;2023-02-20T11:01:35;13.60;95.80
17053;DHT22;8643;48.824;11.422;2023-02-20T11:04:10;13.90;94.80
17053;DHT22;8643;48.824;11.422;2023-02-20T11:06:44;14.20;93.60
17053;DHT22;8643;48.824;11.422;2023-02-20T11:09:18;15.40;93.20
17053;DHT22;8643;48.824;11.422;2023-02-20T11:11:49;14.80;92.60
17053;DHT22;8643;48.824;11.422;2023-02-20T11:14:22;14.80;92.00
17053;DHT22;8643;48.824;11.422;2023-02-20T11:17:09;14.80;92.50
17053;DHT22;8643;48.824;11.422;2023-02-20T11:19:43;15.20;89.90
17053;DHT22;8643;48.824;11.422;2023-02-20T11:22:14;15.10;90.50
17053;DHT22;8643;48.824;11.422;2023-02-20T11:24:45;15.20;91.60
17053;DHT22;8643;48.824;11.422;2023-02-20T11:27:16;15.30;89.80
17053;DHT22;8643;48.824;11.422;2023-02-20T11:29:51;15.50;89.40
17053;DHT22;8643;48.824;11.422;2023-02-20T11:32:32;15.40;90.70
17053;DHT22;8643;48.824;11.422;2023-02-20T11:35:20;15.60;90.10
17053;DHT22;8643;48.824;11.422;2023-02-20T11:38:30;15.80;90.00
17053;DHT22;8643;48.824;11.422;2023-02-20T11:44:22;16.60;85.00
17053;DHT22;8643;48.824;11.422;2023-02-20T11:47:24;16.60;85.20
17053;DHT22;8643;48.824;11.422;2023-02-20T11:50:14;16.90;82.60
17053;DHT22;8643;48.824;11.422;2023-02-20T11:53:00;17.20;79.60
17053;DHT22;8643;48.824;11.422;2023-02-20T11:55:31;17.10;82.10
17053;DHT22;8643;48.824;11.422;2023-02-20T11:58:01;16.20;78.30
17053;DHT22;8643;48.824;11.422;2023-02-20T12:00:43;16.60;80.50
17053;DHT22;8643;48.824;11.422;2023-02-20T12:03:17;16.60;80.30
17053;DHT22;8643;48.824;11.422;2023-02-20T12:05:50;15.20;81.60
17053;DHT22;8643;48.824;11.422;2023-02-20T12:11:16;16.30;82.90
17053;DHT22;8643;48.824;11.422;2023-02-20T12:13:48;16.40;82.30
17053;DHT22;8643;48.824;11.422;2023-02-20T12:16:40;16.50;81.40
17053;DHT22;8643;48.824;11.422;2023-02-20T12:19:27;15.90;79.20
17053;DHT22;8643;48.824;11.422;2023-02-20T12:22:10;16.70;80.50
17053;DHT22;8643;48.824;11.422;2023-02-20T12:25:11;17.00;79.30
17053;DHT22;8643;48.824;11.422;2023-02-20T12:27:57;16.80;78.60
17053;DHT22;8643;48.824;11.422;2023-02-20T12:30:43;16.80;77.60
17053;DHT22;8643;48.824;11.422;2023-02-20T12:33:43;16.70;77.80
17053;DHT22;8643;48.824;11.422;2023-02-20T12:36:28;16.50;79.50
17053;DHT22;8643;48.824;11.422;2023-02-20T12:39:06;16.50;79.30
17053;DHT22;8643;48.824;11.422;2023-02-20T12:41:49;16.60;79.40
17053;DHT22;8643;48.824;11.422;2023-02-20T12:44:49;16.60;77.90
17053;DHT22;8643;48.824;11.422;2023-02-20T12:47:33;16.50;77.30
17053;DHT22;8643;48.824;11.422;2023-02-20T12:50:32;15.40;77.20
17053;DHT22;8643;48.824;11.422;2023-02-20T12:53:19;15.70;79.70
17053;DHT22;8643;48.824;11.422;2023-02-20T12:56:05;15.60;78.00
17053;DHT22;8643;48.824;11.422;2023-02-20T12:58:48;15.90;79.40
17053;DHT22;8643;48.824;11.422;2023-02-20T13:01:24;16.20;78.30
17053;DHT22;8643;48.824;11.422;2023-02-20T13:04:19;16.40;78.40
17053;DHT22;8643;48.824;11.422;2023-02-20T13:07:02;16.40;78.30
17053;DHT22;8643;48.824;11.422;2023-02-20T13:09:38;16.60;78.50
17053;DHT22;8643;48.824;11.422;2023-02-20T13:12:13;16.60;78.10
17053;DHT22;8643;48.824;11.422;2023-02-20T13:14:54;15.40;78.20
17053;DHT22;8643;48.824;11.422;2023-02-20T13:17:36;16.60;78.80
17053;DHT22;8643;48.824;11.422;2023-02-20T13:20:16;16.80;80.10
17053;DHT22;8643;48.824;11.422;2023-02-20T13:23:00;17.30;77.20
17053;DHT22;8643;48.824;11.422;2023-02-20T13:25:41;17.60;77.20
17053;DHT22;8643;48.824;11.422;2023-02-20T13:28:38;18.30;75.70
17053;DHT22;8643;48.824;11.422;2023-02-20T13:33:50;18.30;71.00
17053;DHT22;8643;48.824;11.422;2023-02-20T13:36:42;17.40;73.90
17053;DHT22;8643;48.824;11.422;2023-02-20T13:39:35;17.10;75.60
17053;DHT22;8643;48.824;11.422;2023-02-20T13:42:33;16.90;77.00
17053;DHT22;8643;48.824;11.422;2023-02-20T13:45:36;16.90;75.70
17053;DHT22;8643;48.824;11.422;2023-02-20T13:48:18;16.90;74.20
17053;DHT22;8643;48.824;11.422;2023-02-20T13:51:30;17.00;75.00
17053;DHT22;8643;48.824;11.422;2023-02-20T13:54:27;17.20;72.60
17053;DHT22;8643;48.824;11.422;2023-02-20T13:57:11;17.20;73.00
17053;DHT22;8643;48.824;11.422;2023-02-20T13:59:46;17.50;73.70
17053;DHT22;8643;48.824;11.422;2023-02-20T14:02:18;17.80;72.10
17053;DHT22;8643;48.824;11.422;2023-02-20T14:04:54;18.00;71.10
17053;DHT22;8643;48.824;11.422;2023-02-20T14:07:33;18.10;71.00
17053;DHT22;8643;48.824;11.422;2023-02-20T14:10:15;18.10;69.70
17053;DHT22;8643;48.824;11.422;2023-02-20T14:12:52;18.00;68.70
17053;DHT22;8643;48.824;11.422;2023-02-20T14:15:24;17.90;68.30
17053;DHT22;8643;48.824;11.422;2023-02-20T14:17:54;18.00;68.00
17053;DHT22;8643;48.824;11.422;2023-02-20T14:20:31;18.00;66.90
17053;DHT22;8643;48.824;11.422;2023-02-20T14:23:09;18.10;66.90
17053;DHT22;8643;48.824;11.422;2023-02-20T14:25:57;18.30;66.30
17053;DHT22;8643;48.824;11.422;2023-02-20T14:28:28;17.80;67.70
17053;DHT22;8643;48.824;11.422;2023-02-20T14:31:09;17.70;67.50
17053;DHT22;8643;48.824;11.422;2023-02-20T14:33:48;17.80;67.80
17053;DHT22;8643;48.824;11.422;2023-02-20T14:36:32;18.00;68.20
17053;DHT22;8643;48.824;11.422;2023-02-20T14:39:24;18.00;67.80
17053;DHT22;8643;48.824;11.422;2023-02-20T14:42:04;17.60;64.20
17053;DHT22;8643;48.824;11.422;2023-02-20T14:44:40;18.00;63.40
17053;DHT22;8643;48.824;11.422;2023-02-20T14:47:12;17.80;63.70
17053;DHT22;8643;48.824;11.422;2023-02-20T14:49:42;17.60;64.40
17053;DHT22;8643;48.824;11.422;2023-02-20T14:52:15;17.70;65.30
17053;DHT22;8643;48.824;11.422;2023-02-20T14:54:56;17.70;63.50
17053;DHT22;8643;48.824;11.422;2023-02-20T14:57:28;17.70;64.30
17053;DHT22;8643;48.824;11.422;2023-02-20T15:00:11;17.10;64.20
17053;DHT22;8643;48.824;11.422;2023-02-20T15:02:52;17.30;65.10
17053;DHT22;8643;48.824;11.422;2023-02-20T15:05:27;17.50;65.40
17053;DHT22;8643;48.824;11.422;2023-02-20T15:08:01;17.50;65.90
17053;DHT22;8643;48.824;11.422;2023-02-20T15:10:36;17.40;64.60
17053;DHT22;8643;48.824;11.422;2023-02-20T15:13:10;16.80;65.40
17053;DHT22;8643;48.824;11.422;2023-02-20T15:15:44;17.30;65.30
17053;DHT22;8643;48.824;11.422;2023-02-20T15:18:16;17.20;64.00
17053;DHT22;8643;48.824;11.422;2023-02-20T15:20:58;17.10;65.50
17053;DHT22;8643;48.824;11.422;2023-02-20T15:23:29;17.00;65.70
17053;DHT22;8643;48.824;11.422;2023-02-20T15:26:28;14.20;64.40
17053;DHT22;8643;48.824;11.422;2023-02-20T15:29:15;16.80;65.90
17053;DHT22;8643;48.824;11.422;2023-02-20T15:31:54;16.60;67.40
17053;DHT22;8643;48.824;11.422;2023-02-20T15:34:26;16.50;67.60
17053;DHT22;8643;48.824;11.422;2023-02-20T15:36:56;16.50;67.50
17053;DHT22;8643;48.824;11.422;2023-02-20T15:39:26;16.30;67.90
17053;DHT22;8643;48.824;11.422;2023-02-20T15:41:54;16.10;67.50
17053;DHT22;8643;48.824;11.422;2023-02-20T15:44:26;15.90;68.50
17053;DHT22;8643;48.824;11.422;2023-02-20T15:46:54;15.90;67.80
17053;DHT22;8643;48.824;11.422;2023-02-20T15:49:24;15.70;68.70
17053;DHT22;8643;48.824;11.422;2023-02-20T15:51:52;15.50;68.90
17053;DHT22;8643;48.824;11.422;2023-02-20T15:54:30;15.60;68.90
17053;DHT22;8643;48.824;11.422;2023-02-20T15:56:59;15.40;68.60
17053;DHT22;8643;48.824;11.422;2023-02-20T15:59:29;15.20;69.30
17053;DHT22;8643;48.824;11.422;2023-02-20T16:01:57;15.00;69.60
17053;DHT22;8643;48.824;11.422;2023-02-20T16:04:25;14.70;69.90
17053;DHT22;8643;48.824;11.422;2023-02-20T16:11:52;14.30;71.90
17053;DHT22;8643;48.824;11.422;2023-02-20T16:14:21;14.20;71.70
17053;DHT22;8643;48.824;11.422;2023-02-20T16:16:52;14.00;72.50
17053;DHT22;8643;48.824;11.422;2023-02-20T16:19:22;13.80;72.50
17053;DHT22;8643;48.824;11.422;2023-02-20T16:22:08;13.60;73.50
17053;DHT22;8643;48.824;11.422;2023-02-20T16:24:37;13.40;74.70
17053;DHT22;8643;48.824;11.422;2023-02-20T16:27:14;13.10;75.30
17053;DHT22;8643;48.824;11.422;2023-02-20T16:29:51;12.80;76.30
17053;DHT22;8643;48.824;11.422;2023-02-20T16:32:24;12.50;77.50
17053;DHT22;8643;48.824;11.422;2023-02-20T16:34:58;12.20;79.20
17053;DHT22;8643;48.824;11.422;2023-02-20T16:37:27;12.30;80.20
17053;DHT22;8643;48.824;11.422;2023-02-20T16:42:30;11.70;81.80
17053;DHT22;8643;48.824;11.422;2023-02-20T16:45:02;11.60;83.00
17053;DHT22;8643;48.824;11.422;2023-02-20T16:47:34;11.50;84.30
17053;DHT22;8643;48.824;11.422;2023-02-20T16:50:03;11.30;85.10
17053;DHT22;8643;48.824;11.422;2023-02-20T16:52:34;11.10;86.80
17053;DHT22;8643;48.824;11.422;2023-02-20T16:57:48;10.90;89.30
17053;DHT22;8643;48.824;11.422;2023-02-20T17:00:19;10.60;90.30
17053;DHT22;8643;48.824;11.422;2023-02-20T17:02:50;10.50;90.80
17053;DHT22;8643;48.824;11.422;2023-02-20T17:05:21;10.50;91.70
17053;DHT22;8643;48.824;11.422;2023-02-20T17:07:52;10.40;92.00
17053;DHT22;8643;48.824;11.422;2023-02-20T17:10:21;10.40;91.10
17053;DHT22;8643;48.824;11.422;2023-02-20T17:12:50;10.40;91.50
17053;DHT22;8643;48.824;11.422;2023-02-20T17:15:20;10.40;92.00
17053;DHT22;8643;48.824;11.422;2023-02-20T17:17:52;10.40;91.70
17053;DHT22;8643;48.824;11.422;2023-02-20T17:20:22;10.40;91.10
17053;DHT22;8643;48.824;11.422;2023-02-20T17:22:53;10.40;91.80
17053;DHT22;8643;48.824;11.422;2023-02-20T17:25:32;10.40;91.50
17053;DHT22;8643;48.824;11.422;2023-02-20T17:28:02;10.30;91.20
17053;DHT22;8643;48.824;11.422;2023-02-20T17:30:31;10.40;91.30
17053;DHT22;8643;48.824;11.422;2023-02-20T17:33:01;10.40;91.70
17053;DHT22;8643;48.824;11.422;2023-02-20T17:37:58;10.00;93.20
17053;DHT22;8643;48.824;11.422;2023-02-20T17:40:27;9.90;94.10
17053;DHT22;8643;48.824;11.422;2023-02-20T17:42:55;9.20;95.00
17053;DHT22;8643;48.824;11.422;2023-02-20T17:45:24;9.50;96.00
17053;DHT22;8643;48.824;11.422;2023-02-20T17:47:52;9.30;96.90
17053;DHT22;8643;48.824;11.422;2023-02-20T17:50:22;8.60;97.50
17053;DHT22;8643;48.824;11.422;2023-02-20T17:52:51;9.00;98.70
17053;DHT22;8643;48.824;11.422;2023-02-20T17:55:22;9.00;99.90
17053;DHT22;8643;48.824;11.422;2023-02-20T17:57:52;8.80;99.90
17053;DHT22;8643;48.824;11.422;2023-02-20T18:00:21;8.70;99.90